Time;durP1;ratioP1;P1;durP2;ratioP2;P2;SDS_P1;SDS_P2;PMS_P1;PMS_P2;Temp;Humidity;BMP_temperature;BMP_pressure;BME280_temperature;BME280_humidity;BME280_pressure;Samples;Min_cycle;Max_cycle;Signal;HPM_P1;HPM_P2
2023/12/14 00:00:32;;;;;;;21.65;19.90;;;;;;;3.79;100.00;100938.94;10403614;28;20466;-76
2023/12/14 00:05:32;;;;;;;22.20;20.27;;;;;;;3.74;100.00;100944.19;10441361;28;20044;-78
2023/12/14 00:10:33;;;;;;;21.67;19.80;;;;;;;3.70;100.00;100942.91;10467021;28;20484;-77
2023/12/14 00:15:33;;;;;;;21.05;19.35;;;;;;;3.74;100.00;100959.66;10407046;28;20048;-78
2023/12/14 00:20:34;;;;;;;20.98;19.27;;;;;;;3.73;100.00;100968.88;10413239;28;20041;-75
2023/12/14 00:25:34;;;;;;;20.85;19.25;;;;;;;3.12;100.00;100894.44;10408428;28;20033;-78
2023/12/14 00:30:35;;;;;;;22.45;20.60;;;;;;;3.69;100.00;100995.69;10419017;28;20087;-78
2023/12/14 00:35:35;;;;;;;23.00;20.80;;;;;;;3.71;100.00;101020.81;10414390;28;20041;-78
2023/12/14 00:40:36;;;;;;;21.08;19.17;;;;;;;3.68;100.00;101026.69;10434985;28;20037;-78
2023/12/14 00:45:36;;;;;;;19.03;17.43;;;;;;;3.62;100.00;101022.06;10437909;28;20048;-77
2023/12/14 00:50:37;;;;;;;19.33;17.73;;;;;;;3.36;100.00;101020.91;10438960;28;20069;-78
2023/12/14 00:55:37;;;;;;;20.27;18.77;;;;;;;3.57;100.00;101032.72;10453107;28;20047;-78
2023/12/14 01:00:38;;;;;;;19.85;18.25;;;;;;;3.58;100.00;101032.50;10423898;28;20037;-78
2023/12/14 01:05:38;;;;;;;18.40;16.97;;;;;;;3.67;100.00;101056.84;10435903;28;20037;-78
2023/12/14 01:10:38;;;;;;;19.77;18.37;;;;;;;3.59;100.00;101050.50;10419332;28;20048;-78
2023/12/14 01:15:39;;;;;;;19.67;18.27;;;;;;;3.62;100.00;101060.19;10453143;28;20036;-79
2023/12/14 01:20:39;;;;;;;20.50;18.63;;;;;;;3.63;100.00;101072.72;10458320;28;20037;-78
2023/12/14 01:25:40;;;;;;;20.27;18.50;;;;;;;3.61;100.00;101063.94;10441218;28;20070;-78
2023/12/14 01:30:41;;;;;;;19.40;17.90;;;;;;;3.60;100.00;101081.31;10460807;28;20061;-75
2023/12/14 01:35:41;;;;;;;18.23;16.67;;;;;;;3.64;100.00;101101.66;10453553;28;20099;-78
2023/12/14 01:40:42;;;;;;;20.00;18.17;;;;;;;3.52;100.00;101081.50;10457614;28;20060;-78
2023/12/14 01:45:42;;;;;;;18.80;17.08;;;;;;;3.58;100.00;101094.31;10443757;28;20048;-77
2023/12/14 01:50:43;;;;;;;22.30;19.67;;;;;;;3.56;100.00;101107.28;10440602;28;21093;-80
2023/12/14 01:55:43;;;;;;;22.00;19.73;;;;;;;3.63;100.00;101132.63;10402538;28;20037;-79
2023/12/14 02:01:03;;;;;;;26.10;22.40;;;;;;;3.64;100.00;101134.34;10405932;28;20040;-78
2023/12/14 02:06:05;;;;;;;24.70;22.25;;;;;;;3.66;100.00;101145.84;10439107;28;20369;-78
2023/12/14 02:11:08;;;;;;;25.03;22.50;;;;;;;3.60;100.00;101143.94;10417206;28;20056;-79
2023/12/14 02:16:09;;;;;;;24.47;21.80;;;;;;;3.66;100.00;101159.47;10388557;28;20049;-78
2023/12/14 02:21:10;;;;;;;23.67;21.67;;;;;;;3.68;100.00;101172.88;10393184;28;20040;-79
2023/12/14 02:26:11;;;;;;;25.48;22.70;;;;;;;3.55;100.00;101146.41;10420740;28;20056;-78
2023/12/14 02:31:12;;;;;;;26.17;21.42;;;;;;;3.58;100.00;101151.47;10405530;28;20045;-78
2023/12/14 02:36:12;;;;;;;25.70;21.77;;;;;;;3.60;100.00;101150.22;10405089;28;20037;-78
2023/12/14 02:41:13;;;;;;;23.17;20.95;;;;;;;3.59;100.00;101159.41;10437420;28;20033;-78
2023/12/14 02:46:15;;;;;;;26.73;24.10;;;;;;;3.59;100.00;101164.03;10427622;28;20037;-79
2023/12/14 02:51:15;;;;;;;25.00;22.42;;;;;;;3.61;100.00;101178.28;10420279;28;20047;-78
2023/12/14 02:56:16;;;;;;;25.73;22.92;;;;;;;3.61;100.00;101192.72;10420091;28;20041;-78
2023/12/14 03:01:21;;;;;;;27.55;22.52;;;;;;;3.60;100.00;101198.41;10424947;28;20033;-78
2023/12/14 03:06:21;;;;;;;25.00;22.42;;;;;;;3.57;100.00;101196.88;10452810;28;20132;-78
2023/12/14 03:11:23;;;;;;;25.13;22.90;;;;;;;3.59;100.00;101213.03;10419782;28;20037;-78
2023/12/14 03:16:24;;;;;;;23.05;20.60;;;;;;;3.54;100.00;101207.38;10401896;28;20479;-78
2023/12/14 03:21:24;;;;;;;26.00;23.60;;;;;;;3.22;100.00;101169.69;10398894;28;20036;-78
2023/12/14 03:26:25;;;;;;;24.58;22.10;;;;;;;3.56;100.00;101227.06;10434093;28;20037;-77
2023/12/14 03:31:25;;;;;;;25.92;22.90;;;;;;;3.42;100.00;101226.13;10434534;28;20033;-79
2023/12/14 03:36:27;;;;;;;28.30;24.38;;;;;;;3.36;100.00;101229.63;10398684;28;20041;-78
2023/12/14 03:41:27;;;;;;;25.33;22.60;;;;;;;3.24;100.00;101221.16;10442854;28;20469;-78
2023/12/14 03:46:30;;;;;;;25.73;23.20;;;;;;;3.35;100.00;101242.41;10411901;28;20045;-79
2023/12/14 03:51:31;;;;;;;26.75;24.25;;;;;;;3.44;100.00;101260.25;10412030;28;20101;-77
2023/12/14 03:56:32;;;;;;;27.58;25.05;;;;;;;3.44;100.00;101282.03;10388863;28;20037;-78
2023/12/14 04:01:33;;;;;;;27.77;25.00;;;;;;;3.47;100.00;101279.94;10413503;28;20041;-78
2023/12/14 04:06:36;;;;;;;29.45;25.63;;;;;;;3.49;100.00;101288.75;10407427;28;20082;-78
2023/12/14 04:11:37;;;;;;;28.83;25.73;;;;;;;3.49;100.00;101277.88;10423865;28;20108;-79
2023/12/14 04:16:38;;;;;;;28.23;23.83;;;;;;;3.43;100.00;101293.97;10437475;28;20040;-78
2023/12/14 04:21:38;;;;;;;29.05;25.88;;;;;;;3.44;100.00;101309.25;10420847;28;20481;-76
2023/12/14 04:26:39;;;;;;;29.40;26.48;;;;;;;3.40;100.00;101301.69;10413048;28;20039;-78
2023/12/14 04:31:40;;;;;;;36.83;28.58;;;;;;;3.48;100.00;101308.88;10387607;28;20047;-79
2023/12/14 04:36:48;;;;;;;27.48;24.48;;;;;;;3.38;100.00;101310.03;10419982;28;20041;-79
2023/12/14 04:41:52;;;;;;;30.05;26.35;;;;;;;3.43;100.00;101318.47;10394140;28;20037;-78
2023/12/14 04:46:53;;;;;;;34.22;25.88;;;;;;;3.25;100.00;101337.16;10420600;28;20033;-77
2023/12/14 04:51:53;;;;;;;30.33;25.30;;;;;;;3.19;100.00;101327.03;10407056;28;20083;-77
2023/12/14 04:56:54;;;;;;;30.92;26.33;;;;;;;3.58;100.00;101328.44;10423721;28;20033;-80
2023/12/14 05:01:55;;;;;;;29.23;26.05;;;;;;;3.68;100.00;101348.00;10395311;28;20045;-78
2023/12/14 05:06:56;;;;;;;30.98;26.23;;;;;;;3.69;100.00;101360.56;10420291;28;20053;-78
2023/12/14 05:11:56;;;;;;;29.38;26.05;;;;;;;3.65;100.00;101370.16;10393807;28;20124;-78
2023/12/14 05:16:57;;;;;;;34.13;25.65;;;;;;;3.70;100.00;101378.59;10437543;28;20110;-78
2023/12/14 05:21:58;;;;;;;28.90;25.98;;;;;;;3.71;100.00;101382.16;10435798;28;20044;-78
2023/12/14 05:26:58;;;;;;;32.42;25.80;;;;;;;3.69;100.00;101382.34;10418412;28;20037;-78
2023/12/14 05:31:59;;;;;;;30.15;24.73;;;;;;;3.67;100.00;101389.88;10457680;28;20044;-78
2023/12/14 05:36:59;;;;;;;31.65;26.13;;;;;;;3.13;100.00;101306.06;10435310;28;20047;-78
2023/12/14 05:42:00;;;;;;;31.75;24.52;;;;;;;3.80;100.00;101406.34;10426849;28;20041;-78
2023/12/14 05:47:01;;;;;;;37.67;25.95;;;;;;;3.79;100.00;101411.97;10407027;28;20132;-77
2023/12/14 05:52:01;;;;;;;29.55;26.10;;;;;;;3.62;100.00;101408.69;10441232;28;20471;-77
2023/12/14 05:57:02;;;;;;;29.63;25.70;;;;;;;3.61;100.00;101402.38;10423269;28;20055;-78
2023/12/14 06:02:02;;;;;;;30.20;26.50;;;;;;;3.77;100.00;101452.19;10429794;28;20439;-77
2023/12/14 06:07:03;;;;;;;34.13;27.25;;;;;;;3.78;100.00;101462.88;10455923;28;20036;-78
2023/12/14 06:12:04;;;;;;;31.70;26.60;;;;;;;3.71;100.00;101451.06;10456372;28;20037;-77
2023/12/14 06:17:05;;;;;;;34.33;28.17;;;;;;;3.73;100.00;101459.88;10439218;28;20045;-77
2023/12/14 06:22:05;;;;;;;27.80;24.95;;;;;;;3.82;100.00;101485.09;10421559;28;20033;-77
2023/12/14 06:27:06;;;;;;;33.30;28.77;;;;;;;3.83;100.00;101481.34;10436519;28;20036;-77
2023/12/14 06:32:06;;;;;;;34.20;27.52;;;;;;;3.80;100.00;101493.50;10455088;28;20052;-77
2023/12/14 06:37:07;;;;;;;36.50;25.75;;;;;;;3.40;100.00;101449.50;10436666;28;20040;-78
2023/12/14 06:42:07;;;;;;;30.70;27.38;;;;;;;3.78;100.00;101511.91;10419751;28;20048;-78
2023/12/14 06:47:08;;;;;;;37.20;28.90;;;;;;;3.88;100.00;101532.53;10437671;28;20065;-76
2023/12/14 06:52:09;;;;;;;36.38;28.40;;;;;;;3.81;100.00;101530.56;10421796;28;20741;-78
2023/12/14 06:57:09;;;;;;;43.15;26.90;;;;;;;3.88;100.00;101540.69;10420208;28;20084;-76
2023/12/14 07:02:10;;;;;;;32.53;29.13;;;;;;;3.76;100.00;101535.78;10427769;28;20041;-77
2023/12/14 07:07:12;;;;;;;37.03;28.02;;;;;;;3.72;100.00;101537.19;10436866;28;20048;-78
2023/12/14 07:12:13;;;;;;;42.50;30.65;;;;;;;3.77;100.00;101556.50;10436578;28;20075;-77
2023/12/14 07:17:14;;;;;;;37.50;28.58;;;;;;;3.72;100.00;101550.81;10437234;28;20060;-78
2023/12/14 07:22:14;;;;;;;41.08;29.83;;;;;;;3.74;100.00;101547.88;10433009;28;20044;-78
2023/12/14 07:27:14;;;;;;;36.38;27.60;;;;;;;3.67;100.00;101555.13;10436558;28;20041;-78
2023/12/14 07:32:15;;;;;;;47.28;30.27;;;;;;;3.73;100.00;101574.28;10451575;28;20091;-78
2023/12/14 07:37:16;;;;;;;36.33;28.08;;;;;;;3.76;100.00;101573.91;10415205;28;20037;-77
2023/12/14 07:42:19;;;;;;;39.08;27.02;;;;;;;3.74;100.00;101580.56;10454629;28;20048;-78
2023/12/14 07:47:19;;;;;;;36.17;28.00;;;;;;;3.68;100.00;101582.19;10436824;28;20036;-78
2023/12/14 07:52:20;;;;;;;34.60;27.73;;;;;;;3.61;100.00;101575.81;10417387;28;20087;-78
2023/12/14 07:57:20;;;;;;;36.05;28.60;;;;;;;3.64;100.00;101591.78;10452781;28;20078;-77
2023/12/14 08:02:21;;;;;;;33.92;29.27;;;;;;;3.80;100.00;101623.38;10403965;28;20045;-78
2023/12/14 08:07:22;;;;;;;36.88;28.60;;;;;;;3.75;100.00;101626.66;10415355;28;20033;-77
2023/12/14 08:12:24;;;;;;;33.97;28.48;;;;;;;3.76;100.00;101636.53;10417646;28;20036;-78
2023/12/14 08:17:25;;;;;;;35.42;26.73;;;;;;;3.80;100.00;101654.19;10402682;28;20100;-78
2023/12/14 08:22:25;;;;;;;35.13;26.83;;;;;;;3.74;100.00;101654.97;10433425;28;20095;-77
2023/12/14 08:27:26;;;;;;;46.38;28.85;;;;;;;3.75;100.00;101675.69;10459520;28;20087;-77
2023/12/14 08:32:26;;;;;;;36.97;27.33;;;;;;;3.72;100.00;101670.66;10459977;28;20438;-78
2023/12/14 08:37:26;;;;;;;33.65;29.77;;;;;;;3.78;100.00;101680.78;10428414;28;20055;-78
2023/12/14 08:42:27;;;;;;;38.33;27.80;;;;;;;3.87;100.00;101697.84;10440552;28;20037;-78
2023/12/14 08:47:27;;;;;;;28.73;24.38;;;;;;;3.84;100.00;101707.25;10442110;28;20041;-77
2023/12/14 08:52:28;;;;;;;34.80;26.88;;;;;;;3.77;100.00;101689.13;10419871;28;20314;-78
2023/12/14 08:57:28;;;;;;;33.95;27.15;;;;;;;3.89;100.00;101719.47;10424063;28;20037;-77
2023/12/14 09:02:29;;;;;;;34.28;26.50;;;;;;;3.83;100.00;101704.72;10439100;28;20044;-77
2023/12/14 09:07:29;;;;;;;36.25;26.83;;;;;;;3.90;100.00;101721.13;10422018;28;20041;-77
2023/12/14 09:12:30;;;;;;;37.22;27.38;;;;;;;3.93;100.00;101734.41;10439992;28;20037;-78
2023/12/14 09:17:32;;;;;;;40.33;27.35;;;;;;;3.93;100.00;101726.22;10441303;28;20044;-78
2023/12/14 09:22:33;;;;;;;32.42;25.98;;;;;;;4.03;100.00;101733.06;10430493;28;20037;-77
2023/12/14 09:27:33;;;;;;;36.42;26.02;;;;;;;4.08;100.00;101723.47;10421408;28;20056;-76
2023/12/14 09:32:34;;;;;;;31.33;27.98;;;;;;;4.05;100.00;101721.94;10406037;28;20053;-78
2023/12/14 09:37:35;;;;;;;34.15;28.95;;;;;;;4.21;100.00;101738.09;10420731;28;20060;-78
2023/12/14 09:42:37;;;;;;;33.00;26.85;;;;;;;4.28;100.00;101742.78;10456306;28;20033;-77
2023/12/14 09:47:37;;;;;;;35.88;26.38;;;;;;;4.45;100.00;101757.88;10442458;28;20041;-77
2023/12/14 09:52:38;;;;;;;28.67;25.10;;;;;;;4.59;100.00;101776.09;10426270;28;20036;-77
2023/12/14 09:57:38;;;;;;;32.45;24.80;;;;;;;4.57;100.00;101767.25;10409012;28;20041;-78
2023/12/14 10:02:39;;;;;;;34.92;24.30;;;;;;;4.63;100.00;101769.22;10432175;28;20033;-78
2023/12/14 10:07:43;;;;;;;35.38;23.13;;;;;;;4.74;100.00;101769.75;10418503;28;20060;-78
2023/12/14 10:12:53;;;;;;;30.42;22.35;;;;;;;4.83;100.00;101777.59;10440682;28;20053;-77
2023/12/14 10:17:54;;;;;;;24.90;19.45;;;;;;;4.82;100.00;101775.06;10433506;28;20037;-78
2023/12/14 10:22:55;;;;;;;28.95;19.45;;;;;;;4.86;100.00;101781.84;10432533;28;20045;-77
2023/12/14 10:27:57;;;;;;;28.13;19.45;;;;;;;4.92;100.00;101797.44;10432222;28;20049;-78
2023/12/14 10:32:57;;;;;;;24.95;21.02;;;;;;;4.89;100.00;101791.50;10436988;28;20064;-77
2023/12/14 10:38:02;;;;;;;24.33;18.40;;;;;;;4.89;100.00;101775.97;10430884;28;20033;-78
2023/12/14 10:43:03;;;;;;;26.50;18.58;;;;;;;4.91;100.00;101773.91;10424591;28;20454;-76
2023/12/14 10:48:04;;;;;;;29.05;18.02;;;;;;;5.11;100.00;101809.59;10419448;28;20041;-78
2023/12/14 10:53:04;;;;;;;24.85;16.23;;;;;;;5.08;100.00;101809.13;10423841;28;20418;-77
2023/12/14 10:58:05;;;;;;;29.73;18.25;;;;;;;5.10;100.00;101826.16;10393909;28;20520;-78
2023/12/14 11:03:06;;;;;;;23.25;15.93;;;;;;;5.18;100.00;101828.75;10428442;28;20041;-78
2023/12/14 11:08:09;;;;;;;23.75;17.17;;;;;;;5.09;100.00;101825.31;10433821;28;20049;-78
2023/12/14 11:13:12;;;;;;;23.17;15.00;;;;;;;5.15;100.00;101830.00;10436959;28;20037;-77
2023/12/14 11:18:12;;;;;;;25.45;17.17;;;;;;;5.25;100.00;101835.97;10434529;28;20041;-78
2023/12/14 11:23:25;;;;;;;26.33;16.15;;;;;;;5.18;100.00;101823.28;10453443;28;20044;-78
2023/12/14 11:28:32;;;;;;;24.42;16.95;;;;;;;5.21;100.00;101851.06;10436417;28;20049;-78
2023/12/14 11:33:33;;;;;;;24.30;16.42;;;;;;;5.18;100.00;101840.50;10429325;28;20090;-78
2023/12/14 11:38:34;;;;;;;24.52;16.08;;;;;;;4.81;100.00;101795.19;10435635;28;20045;-78
2023/12/14 11:43:41;;;;;;;27.63;15.65;;;;;;;4.96;100.00;101853.31;10402884;28;20037;-80
2023/12/14 11:48:44;;;;;;;23.20;15.98;;;;;;;4.88;100.00;101844.38;10407296;28;20045;-79
2023/12/14 11:53:46;;;;;;;26.67;15.02;;;;;;;4.64;100.00;101806.34;10434044;28;20065;-78
2023/12/14 11:58:47;;;;;;;26.20;15.85;;;;;;;4.98;100.00;101877.66;10436004;28;20043;-78
2023/12/14 12:03:47;;;;;;;23.98;16.20;;;;;;;4.88;100.00;101877.13;10437283;28;20037;-78
2023/12/14 12:08:48;;;;;;;28.63;17.95;;;;;;;4.84;100.00;101868.50;10426525;28;20044;-78
2023/12/14 12:13:52;;;;;;;27.40;19.38;;;;;;;4.86;100.00;101858.25;10426304;28;20037;-78
2023/12/14 12:18:53;;;;;;;30.73;18.08;;;;;;;4.97;100.00;101865.91;10472348;28;20119;-78
2023/12/14 12:23:53;;;;;;;23.42;17.63;;;;;;;4.99;100.00;101885.66;10437732;28;20048;-79
2023/12/14 12:28:54;;;;;;;26.45;17.75;;;;;;;4.80;100.00;101869.91;10420601;28;20079;-78
2023/12/14 12:33:54;;;;;;;25.52;19.17;;;;;;;4.86;100.00;101901.91;10472114;28;20067;-78
2023/12/14 12:38:55;;;;;;;25.98;19.88;;;;;;;4.87;100.00;101903.56;10424341;28;20144;-77
2023/12/14 12:43:55;;;;;;;31.05;21.13;;;;;;;4.68;100.00;101879.63;10441774;28;20056;-80
2023/12/14 12:48:56;;;;;;;29.63;19.73;;;;;;;4.85;100.00;101905.66;10459372;28;20037;-79
2023/12/14 12:53:57;;;;;;;30.30;19.20;;;;;;;4.84;100.00;101893.06;10448991;28;20056;-78
2023/12/14 12:58:58;;;;;;;35.20;21.63;;;;;;;4.93;100.00;101902.81;10437021;28;20037;-79
2023/12/14 13:03:58;;;;;;;32.88;22.38;;;;;;;5.02;100.00;101904.41;10434833;28;20037;-78
2023/12/14 13:08:59;;;;;;;29.67;20.42;;;;;;;5.05;100.00;101917.66;10436786;28;20051;-79
2023/12/14 13:14:02;;;;;;;33.33;21.48;;;;;;;5.05;100.00;101906.72;10440337;28;20078;-79
2023/12/14 13:19:03;;;;;;;26.60;19.25;;;;;;;5.14;100.00;101917.53;10460807;28;20033;-78
2023/12/14 13:24:04;;;;;;;26.08;16.63;;;;;;;5.12;100.00;101919.59;10472256;28;20127;-79
2023/12/14 13:29:04;;;;;;;26.92;18.70;;;;;;;5.18;100.00;101930.59;10453013;28;20228;-79
2023/12/14 13:34:05;;;;;;;35.58;18.60;;;;;;;5.12;100.00;101916.88;10436925;28;20037;-78
2023/12/14 13:39:06;;;;;;;28.30;16.35;;;;;;;5.14;100.00;101925.72;10452598;28;20033;-79
2023/12/14 13:44:07;;;;;;;23.75;16.40;;;;;;;5.12;100.00;101925.06;10451986;28;20049;-79
2023/12/14 13:49:07;;;;;;;25.10;18.63;;;;;;;5.17;100.00;101947.19;10452988;28;20053;-79
2023/12/14 13:54:07;;;;;;;30.85;18.92;;;;;;;5.04;100.00;101954.19;10436882;28;20040;-79
2023/12/14 13:59:08;;;;;;;29.90;18.88;;;;;;;5.05;100.00;101966.78;10451754;28;20044;-79
2023/12/14 14:04:09;;;;;;;28.67;18.80;;;;;;;5.02;100.00;101972.63;10408088;28;20075;-79
2023/12/14 14:09:10;;;;;;;30.23;18.35;;;;;;;4.93;100.00;101957.38;10461119;28;20056;-79
2023/12/14 14:14:11;;;;;;;25.50;17.95;;;;;;;5.05;100.00;101980.44;10444318;28;20060;-79
2023/12/14 14:19:12;;;;;;;32.42;19.17;;;;;;;5.07;100.00;101985.69;10450685;28;20073;-77
2023/12/14 14:24:12;;;;;;;24.05;17.13;;;;;;;4.94;100.00;101964.56;10437943;28;20041;-78
2023/12/14 14:29:13;;;;;;;31.15;17.52;;;;;;;4.85;100.00;101963.78;10432709;28;20106;-78
2023/12/14 14:34:13;;;;;;;25.48;18.45;;;;;;;4.95;100.00;101998.97;10422527;28;20044;-77
2023/12/14 14:39:16;;;;;;;29.83;18.98;;;;;;;4.84;100.00;102002.19;10474824;28;20052;-77
2023/12/14 14:44:17;;;;;;;26.30;17.80;;;;;;;4.85;100.00;102021.09;10441446;28;20041;-77
2023/12/14 14:49:18;;;;;;;30.27;18.98;;;;;;;4.87;100.00;102040.00;10472095;28;20076;-77
2023/12/14 14:54:18;;;;;;;28.00;19.02;;;;;;;4.75;100.00;102030.59;10432184;28;20408;-77
2023/12/14 14:59:19;;;;;;;25.70;17.52;;;;;;;4.80;100.00;102037.19;10447843;28;20036;-77
2023/12/14 15:04:19;;;;;;;29.80;17.35;;;;;;;4.77;100.00;102050.34;10450203;28;20037;-75
2023/12/14 15:09:20;;;;;;;29.83;16.52;;;;;;;4.74;100.00;102067.09;10423801;28;20405;-77
2023/12/14 15:14:20;;;;;;;26.27;17.63;;;;;;;4.60;100.00;102072.34;10438021;28;20377;-77
2023/12/14 15:19:21;;;;;;;31.67;18.77;;;;;;;4.36;100.00;102061.66;10466816;28;20500;-77
2023/12/14 15:24:22;;;;;;;26.85;17.27;;;;;;;4.24;100.00;102086.63;10456136;28;20158;-77
2023/12/14 15:29:22;;;;;;;24.35;16.77;;;;;;;4.04;100.00;102061.75;10427194;28;20048;-78
2023/12/14 15:34:23;;;;;;;26.77;18.25;;;;;;;3.89;100.00;102079.91;10434951;28;20052;-77
2023/12/14 15:39:23;;;;;;;30.80;17.90;;;;;;;3.88;100.00;102100.00;10471223;28;20037;-78
2023/12/14 15:44:24;;;;;;;27.55;18.67;;;;;;;3.84;100.00;102098.66;10432782;28;20036;-77
2023/12/14 15:49:24;;;;;;;32.70;20.58;;;;;;;3.86;100.00;102087.59;10474778;28;20056;-78
2023/12/14 15:54:25;;;;;;;29.75;20.15;;;;;;;3.98;100.00;102107.94;10457754;28;20056;-77
2023/12/14 15:59:25;;;;;;;32.40;20.83;;;;;;;4.01;100.00;102105.72;10451841;28;20052;-77
2023/12/14 16:04:26;;;;;;;28.95;20.35;;;;;;;4.03;100.00;102108.25;10455969;28;20117;-77
2023/12/14 16:09:27;;;;;;;33.20;21.98;;;;;;;4.00;100.00;102098.56;10461162;28;20040;-77
2023/12/14 16:14:28;;;;;;;30.27;17.73;;;;;;;4.08;100.00;102134.97;10432584;28;20048;-77
2023/12/14 16:19:28;;;;;;;30.83;18.50;;;;;;;4.07;100.00;102136.81;10468437;28;20048;-80
2023/12/14 16:24:28;;;;;;;39.67;19.33;;;;;;;3.89;100.00;102106.31;10428900;28;20041;-79
2023/12/14 16:29:29;;;;;;;31.52;18.35;;;;;;;3.98;100.00;102130.59;10444498;28;20049;-79
2023/12/14 16:34:30;;;;;;;33.95;17.63;;;;;;;4.01;100.00;102143.00;10413724;28;20037;-79
2023/12/14 16:39:31;;;;;;;29.52;17.25;;;;;;;3.98;100.00;102135.19;10460108;28;20037;-79
2023/12/14 16:44:32;;;;;;;30.33;16.15;;;;;;;4.02;100.00;102151.00;10423699;28;20148;-80
2023/12/14 16:49:33;;;;;;;28.17;17.45;;;;;;;4.09;100.00;102166.63;10427665;28;20048;-80
2023/12/14 16:54:34;;;;;;;33.25;17.00;;;;;;;3.98;100.00;102154.28;10425369;28;20433;-79
2023/12/14 16:59:36;;;;;;;27.35;15.70;;;;;;;4.07;100.00;102179.59;10425441;28;20052;-80
2023/12/14 17:04:37;;;;;;;26.77;15.15;;;;;;;4.03;100.00;102169.06;10422903;28;20036;-79
2023/12/14 17:09:37;;;;;;;27.15;15.30;;;;;;;4.13;100.00;102190.63;10406368;28;20382;-78
2023/12/14 17:14:40;;;;;;;34.25;17.38;;;;;;;4.13;100.00;102200.69;10457799;28;20064;-80
2023/12/14 17:19:41;;;;;;;29.05;16.15;;;;;;;4.11;100.00;102195.41;10422808;28;20063;-79
2023/12/14 17:24:41;;;;;;;35.63;17.88;;;;;;;4.17;100.00;102205.59;10443920;28;20036;-80
2023/12/14 17:29:41;;;;;;;34.97;17.77;;;;;;;4.24;100.00;102222.94;10423434;28;20044;-80
2023/12/14 17:34:42;;;;;;;26.58;15.50;;;;;;;4.16;100.00;102195.72;10406606;28;20059;-79
2023/12/14 17:39:43;;;;;;;35.53;16.52;;;;;;;4.14;100.00;102197.78;10440018;28;20037;-80
2023/12/14 17:44:44;;;;;;;29.98;16.83;;;;;;;4.25;100.00;102199.25;10421550;28;20090;-80
2023/12/14 17:49:44;;;;;;;34.90;16.83;;;;;;;4.29;100.00;102197.84;10424576;28;20100;-80
2023/12/14 17:54:45;;;;;;;32.70;17.40;;;;;;;4.28;100.00;102207.09;10456844;28;20037;-80
2023/12/14 17:59:46;;;;;;;30.45;16.38;;;;;;;4.25;100.00;102205.53;10388464;28;20036;-80
2023/12/14 18:04:47;;;;;;;29.92;17.05;;;;;;;4.28;100.00;102219.84;10457259;28;20052;-81
2023/12/14 18:09:47;;;;;;;28.35;15.68;;;;;;;4.27;100.00;102227.19;10456181;28;20052;-80
2023/12/14 18:14:48;;;;;;;25.25;14.23;;;;;;;4.22;100.00;102225.00;10437629;28;20037;-81
2023/12/14 18:19:48;;;;;;;30.65;14.95;;;;;;;3.83;100.00;102168.66;10420492;28;20120;-80
2023/12/14 18:24:49;;;;;;;24.40;14.32;;;;;;;4.21;100.00;102231.47;10455737;28;20052;-79
2023/12/14 18:29:49;;;;;;;29.52;15.25;;;;;;;4.20;100.00;102240.69;10422084;28;20045;-79
2023/12/14 18:34:50;;;;;;;29.27;14.73;;;;;;;4.22;100.00;102252.25;10422279;28;20045;-80
2023/12/14 18:39:50;;;;;;;25.33;15.20;;;;;;;4.19;100.00;102249.88;10413456;28;20040;-80
2023/12/14 18:44:51;;;;;;;26.00;14.48;;;;;;;4.11;100.00;102239.00;10445577;28;20040;-81
2023/12/14 18:49:51;;;;;;;25.52;13.32;;;;;;;4.17;100.00;102278.34;10454316;28;20098;-80
2023/12/14 18:54:52;;;;;;;23.10;13.90;;;;;;;4.13;100.00;102283.28;10413222;28;20037;-81
2023/12/14 18:59:52;;;;;;;20.58;13.00;;;;;;;4.14;100.00;102295.06;10432052;28;20106;-81
2023/12/14 19:04:53;;;;;;;25.88;14.68;;;;;;;4.14;100.00;102305.97;10410603;28;20037;-81
2023/12/14 19:09:54;;;;;;;26.13;14.70;;;;;;;4.10;100.00;102308.19;10409671;28;20037;-81
2023/12/14 19:14:55;;;;;;;32.47;14.48;;;;;;;4.14;100.00;102312.25;10427431;28;20060;-81
2023/12/14 19:19:57;;;;;;;33.40;16.00;;;;;;;4.10;100.00;102308.19;10421155;28;20037;-80
2023/12/14 19:24:58;;;;;;;30.63;15.35;;;;;;;4.18;100.00;102316.34;10405166;28;20048;-80
2023/12/14 19:29:58;;;;;;;29.90;15.63;;;;;;;4.16;100.00;102321.13;10403014;28;20041;-80
2023/12/14 19:35:00;;;;;;;26.45;14.57;;;;;;;3.91;100.00;102297.72;10442211;28;20044;-81
2023/12/14 19:40:02;;;;;;;29.70;14.73;;;;;;;3.91;100.00;102308.59;10424271;28;20051;-81
2023/12/14 19:45:03;;;;;;;27.13;14.80;;;;;;;4.02;100.00;102332.75;10386236;28;20063;-81
2023/12/14 19:50:06;;;;;;;31.25;14.00;;;;;;;4.00;100.00;102326.63;10435612;28;20072;-81
2023/12/14 19:55:10;;;;;;;27.58;15.35;;;;;;;4.08;100.00;102351.13;10434521;28;20041;-81
2023/12/14 20:00:10;;;;;;;29.67;16.08;;;;;;;4.08;100.00;102342.09;10419287;28;20067;-80
2023/12/14 20:05:11;;;;;;;28.15;13.88;;;;;;;3.98;100.00;102323.22;10401974;28;20057;-80
2023/12/14 20:10:12;;;;;;;31.55;15.65;;;;;;;4.07;100.00;102348.56;10420994;28;20052;-81
2023/12/14 20:15:15;;;;;;;23.88;13.20;;;;;;;3.95;100.00;102340.78;10410158;28;20025;-81
2023/12/14 20:20:16;;;;;;;25.92;13.30;;;;;;;4.05;100.00;102365.09;10404489;28;20477;-80
2023/12/14 20:25:16;;;;;;;27.33;12.98;;;;;;;4.10;100.00;102373.59;10459742;28;20040;-80
2023/12/14 20:30:17;;;;;;;25.48;14.85;;;;;;;4.05;100.00;102362.34;10427939;28;20127;-80
2023/12/14 20:35:17;;;;;;;29.67;14.57;;;;;;;4.11;100.00;102377.16;10422184;28;20037;-81
2023/12/14 20:40:18;;;;;;;30.67;14.15;;;;;;;4.09;100.00;102381.94;10438355;28;20044;-78
2023/12/14 20:45:19;;;;;;;32.08;15.68;;;;;;;4.16;100.00;102400.16;10411867;28;20061;-80
2023/12/14 20:50:19;;;;;;;26.48;13.88;;;;;;;4.15;100.00;102384.81;10407468;28;20467;-80
2023/12/14 20:55:20;;;;;;;32.17;15.63;;;;;;;4.11;100.00;102375.28;10388459;28;20044;-80
2023/12/14 21:00:20;;;;;;;29.10;15.15;;;;;;;4.10;100.00;102381.78;10441831;28;20132;-80
2023/12/14 21:05:21;;;;;;;28.15;14.65;;;;;;;4.17;100.00;102388.22;10424284;28;20036;-80
2023/12/14 21:10:21;;;;;;;28.73;15.02;;;;;;;4.23;100.00;102409.31;10423686;28;20155;-79
2023/12/14 21:15:22;;;;;;;28.23;15.15;;;;;;;4.23;100.00;102409.31;10431546;28;20063;-79
2023/12/14 21:20:22;;;;;;;29.30;13.88;;;;;;;4.21;100.00;102405.94;10422158;28;20049;-80
2023/12/14 21:25:26;;;;;;;31.13;15.60;;;;;;;4.16;100.00;102408.34;10392622;28;20070;-79
2023/12/14 21:30:27;;;;;;;30.63;16.30;;;;;;;4.02;100.00;102376.34;10423211;28;20041;-79
2023/12/14 21:35:27;;;;;;;35.33;17.40;;;;;;;4.10;100.00;102398.13;10439309;28;20413;-80
2023/12/14 21:40:28;;;;;;;34.25;18.05;;;;;;;4.15;100.00;102412.06;10419192;28;20037;-79
2023/12/14 21:45:28;;;;;;;33.42;16.42;;;;;;;4.16;100.00;102404.78;10427989;28;20040;-79
2023/12/14 21:50:29;;;;;;;39.22;18.27;;;;;;;4.21;100.00;102414.09;10406463;28;20085;-80
2023/12/14 21:55:29;;;;;;;36.78;17.90;;;;;;;4.14;100.00;102395.91;10438276;28;20037;-79
2023/12/14 22:00:30;;;;;;;38.35;18.92;;;;;;;4.20;100.00;102406.97;10405929;28;20105;-77
2023/12/14 22:05:30;;;;;;;37.72;18.63;;;;;;;4.24;100.00;102413.78;10455000;28;20068;-79
2023/12/14 22:10:31;;;;;;;46.13;19.30;;;;;;;4.18;100.00;102411.75;10418200;28;20733;-79
2023/12/14 22:15:31;;;;;;;36.92;18.65;;;;;;;4.17;100.00;102409.19;10388612;28;20033;-78
2023/12/14 22:20:32;;;;;;;38.67;17.98;;;;;;;4.20;100.00;102408.84;10405420;28;20059;-79
2023/12/14 22:25:32;;;;;;;43.85;20.20;;;;;;;4.18;100.00;102403.56;10457463;28;20037;-78
2023/12/14 22:30:33;;;;;;;39.40;18.75;;;;;;;4.31;100.00;102426.72;10430904;28;20047;-79